aviador You're here:

KAOH Decoded Metar

LIMA in OH, USA
Report Time2018-05-27 00:53:00
UTC Time2018-05-27 01:20:12
Flight Rules vfr VFR
Wind130° at 05 kt
W.Decomp.*RWY 14: 5.0 kt HW 0.3 kt LCW
RWY 10: 4.0 kt HW 2.9 kt RCW
W.Rank130° ranks 33
Current wind is below 130° avg. (7.0)
Visibility9999 m
Phenomena:N/A
Clouds:N/A
Expected CloudBase > 800 ft AGL from Temp-Dew spread
CeilingNone
Temp23°C (ISA +10)
Dew Point21°C (89% RH)
QNH1009 hPa
Density Alt2,592 ft
Elevation971 ft
Report Wrong Elevation
Raw Report
KAOH 270053Z AUTO 13005KT 10SM CLR 23/21 A2981 RMK AO2 SLP088
T02280206=

Extra information for KAOH:More info

Metar Taf Metar & Taf Last 4 Metars F.Rules Stats Wind Profile Meteogram Temp Stats Airport Information Weather charts Add Link Nearby VenuesMetar ALERT Operation Metar Decoded Social comments

AIRNAV info for KAOH